createdAt,value
2023-01-07T00:02:03.059Z,101055.34
2023-01-07T00:05:04.656Z,101051.91
2023-01-07T00:08:06.058Z,101044.84
2023-01-07T00:11:10.010Z,101047.47
2023-01-07T00:14:13.443Z,101038.72
2023-01-07T00:17:14.848Z,101029.03
2023-01-07T00:20:16.334Z,101027.28
2023-01-07T00:23:17.828Z,101025.56
2023-01-07T00:26:21.684Z,101025.56
2023-01-07T00:29:23.086Z,101023.84
2023-01-07T00:32:44.548Z,101017.72
2023-01-07T00:35:46.009Z,101016.00
2023-01-07T00:38:47.912Z,101015.88
2023-01-07T00:42:07.922Z,100998.03
2023-01-07T00:45:10.199Z,101000.75
2023-01-07T00:48:11.638Z,101000.69
2023-01-07T00:51:14.872Z,100996.53
2023-01-07T00:54:16.364Z,100988.75
2023-01-07T00:57:17.861Z,100992.28
2023-01-07T01:00:20.956Z,100983.50
2023-01-07T01:03:22.894Z,100983.56
2023-01-07T01:06:24.383Z,100979.84
2023-01-07T01:09:26.335Z,100974.53
2023-01-07T01:12:28.160Z,100978.13
2023-01-07T01:15:30.780Z,100976.41
2023-01-07T01:18:32.169Z,100976.31
2023-01-07T01:21:33.584Z,100972.09
2023-01-07T01:24:34.965Z,100975.59
2023-01-07T01:27:36.673Z,100983.44
2023-01-07T01:30:38.064Z,100976.47
2023-01-07T01:33:39.713Z,100980.97
2023-01-07T01:36:41.387Z,100980.22
2023-01-07T01:39:43.096Z,100981.00
2023-01-07T01:42:44.520Z,100974.06
2023-01-07T01:45:50.293Z,100972.31
2023-01-07T01:48:59.600Z,100966.28
2023-01-07T01:52:07.103Z,100965.38
2023-01-07T01:55:10.087Z,100963.50
2023-01-07T01:58:17.621Z,100964.28
2023-01-07T02:01:20.033Z,100966.19
2023-01-07T02:04:24.393Z,100961.63
2023-01-07T02:07:25.827Z,100955.59
2023-01-07T02:10:32.963Z,100957.22
2023-01-07T02:13:54.172Z,100947.56
2023-01-07T02:17:23.627Z,100949.53
2023-01-07T02:20:46.240Z,100950.38
2023-01-07T02:24:14.552Z,100947.00
2023-01-07T02:27:43.742Z,100941.63
2023-01-07T02:31:15.786Z,100941.72
2023-01-07T02:34:22.465Z,100932.91
2023-01-07T02:37:37.492Z,100930.22
2023-01-07T02:41:04.527Z,100925.94
2023-01-07T02:44:16.826Z,100926.00
2023-01-07T02:47:41.054Z,100919.00
2023-01-07T02:50:42.593Z,100911.75
2023-01-07T02:53:47.527Z,100912.56
2023-01-07T02:57:18.145Z,100905.72
2023-01-07T03:00:22.716Z,100896.97
2023-01-07T03:03:52.223Z,100894.41
2023-01-07T03:07:30.790Z,100890.91
2023-01-07T03:10:44.834Z,100885.53
2023-01-07T03:13:55.798Z,100887.25
2023-01-07T03:17:04.178Z,100883.84
2023-01-07T03:20:06.690Z,100881.25
2023-01-07T03:23:11.726Z,100876.00
2023-01-07T03:26:15.138Z,100882.13
2023-01-07T03:29:18.235Z,100880.44
2023-01-07T03:32:38.148Z,100880.50
2023-01-07T03:35:42.559Z,100875.09
2023-01-07T03:38:45.607Z,100869.81
2023-01-07T03:42:09.005Z,100871.50
2023-01-07T03:45:14.429Z,100867.25
2023-01-07T03:48:16.206Z,100868.97
2023-01-07T03:51:17.774Z,100865.44
2023-01-07T03:54:19.727Z,100868.94
2023-01-07T03:57:21.262Z,100862.81
2023-01-07T04:00:23.122Z,100845.94
2023-01-07T04:03:30.250Z,100838.22
2023-01-07T04:06:31.853Z,100847.03
2023-01-07T04:09:33.308Z,100839.88
2023-01-07T04:12:35.127Z,100831.19
2023-01-07T04:15:36.798Z,100836.47
2023-01-07T04:18:38.509Z,100831.28
2023-01-07T04:21:40.500Z,100832.06
2023-01-07T04:24:42.022Z,100826.78
2023-01-07T04:27:44.024Z,100824.16
2023-01-07T04:30:46.126Z,100821.63
2023-01-07T04:33:47.794Z,100815.47
2023-01-07T04:36:49.345Z,100808.34
2023-01-07T04:39:50.974Z,100815.25
2023-01-07T04:42:52.755Z,100809.22
2023-01-07T04:45:54.723Z,100803.94
2023-01-07T04:48:56.217Z,100799.56
2023-01-07T04:51:59.229Z,100804.13
2023-01-07T04:55:01.214Z,100803.44
2023-01-07T04:58:02.716Z,100788.53
2023-01-07T05:01:06.908Z,100791.22
2023-01-07T05:04:09.535Z,100790.16
2023-01-07T05:07:11.503Z,100785.81
2023-01-07T05:10:13.297Z,100778.91
2023-01-07T05:13:16.830Z,100780.41
2023-01-07T05:16:18.595Z,100776.19
2023-01-07T05:19:21.765Z,100779.84
2023-01-07T05:22:23.906Z,100775.53
2023-01-07T05:25:25.451Z,100771.19
2023-01-07T05:28:27.499Z,100768.53
2023-01-07T05:31:29.033Z,100761.50
2023-01-07T05:34:30.649Z,100761.50
2023-01-07T05:37:32.788Z,100757.16
2023-01-07T05:40:34.457Z,100753.63
2023-01-07T05:43:35.913Z,100752.72
2023-01-07T05:46:37.334Z,100750.94
2023-01-07T05:49:38.727Z,100742.19
2023-01-07T05:52:40.107Z,100742.19
2023-01-07T05:55:41.614Z,100739.53
2023-01-07T05:58:43.009Z,100740.38
2023-01-07T06:01:44.412Z,100743.81
2023-01-07T06:04:45.849Z,100734.97
2023-01-07T06:07:47.264Z,100732.97
2023-01-07T06:10:48.698Z,100730.44
2023-01-07T06:13:50.146Z,100721.78
2023-01-07T06:16:51.603Z,100731.53
2023-01-07T06:19:53.182Z,100726.22
2023-01-07T06:22:54.608Z,100736.06
2023-01-07T06:25:56.002Z,100725.53
2023-01-07T06:28:57.438Z,100721.97
2023-01-07T06:31:58.838Z,100718.97
2023-01-07T06:35:00.313Z,100717.88
2023-01-07T06:38:01.714Z,100714.50
2023-01-07T06:41:03.181Z,100716.41
2023-01-07T06:44:04.661Z,100703.28
2023-01-07T06:47:06.333Z,100706.78
2023-01-07T06:50:08.188Z,100704.91
2023-01-07T06:53:09.558Z,100698.88
2023-01-07T06:56:11.000Z,100693.59
2023-01-07T06:59:12.530Z,100698.75
2023-01-07T07:02:26.320Z,100687.34
2023-01-07T07:05:28.188Z,100687.44
2023-01-07T07:08:29.763Z,100685.66
2023-01-07T07:11:31.169Z,100689.09
2023-01-07T07:14:32.611Z,100679.38
2023-01-07T07:17:34.761Z,100682.03
2023-01-07T07:20:36.150Z,100680.22
2023-01-07T07:23:37.557Z,100685.50
2023-01-07T07:26:39.063Z,100679.47
2023-01-07T07:29:40.536Z,100668.03
2023-01-07T07:32:42.600Z,100672.34
2023-01-07T07:35:44.620Z,100676.66
2023-01-07T07:38:45.999Z,100663.56
2023-01-07T07:41:47.382Z,100656.59
2023-01-07T07:44:52.040Z,100661.22
2023-01-07T07:47:53.473Z,100665.03
2023-01-07T07:50:54.881Z,100655.38
2023-01-07T07:53:56.276Z,100657.19
2023-01-07T07:56:58.352Z,100650.03
2023-01-07T07:59:59.760Z,100639.31
2023-01-07T08:03:01.422Z,100642.03
2023-01-07T08:06:06.874Z,100638.44
2023-01-07T08:09:08.558Z,100641.91
2023-01-07T08:12:09.963Z,100635.59
2023-01-07T08:15:11.608Z,100624.94
2023-01-07T08:18:13.201Z,100627.66
2023-01-07T08:21:14.681Z,100629.81
2023-01-07T08:24:16.155Z,100623.78
2023-01-07T08:27:17.526Z,100621.97
2023-01-07T08:30:18.974Z,100622.69
2023-01-07T08:33:20.426Z,100621.59
2023-01-07T08:36:23.387Z,100626.06
2023-01-07T08:39:25.051Z,100625.50
2023-01-07T08:42:26.858Z,100622.59
2023-01-07T08:45:28.815Z,100626.97
2023-01-07T08:48:30.230Z,100626.91
2023-01-07T08:51:31.665Z,100625.28
2023-01-07T08:54:33.161Z,100613.88
2023-01-07T08:57:34.707Z,100608.69
2023-01-07T09:00:36.187Z,100619.81
2023-01-07T09:03:38.170Z,100606.31
2023-01-07T09:06:39.732Z,100605.44
2023-01-07T09:09:42.910Z,100599.22
2023-01-07T09:12:44.291Z,100601.00
2023-01-07T09:15:45.715Z,100602.94
2023-01-07T09:18:47.096Z,100595.78
2023-01-07T09:21:48.470Z,100596.41
2023-01-07T09:24:49.860Z,100587.69
2023-01-07T09:27:51.264Z,100582.31
2023-01-07T09:30:52.685Z,100582.38
2023-01-07T09:33:54.304Z,100576.00
2023-01-07T09:36:55.732Z,100577.59
2023-01-07T09:39:57.340Z,100564.94
2023-01-07T09:43:16.466Z,100569.31
2023-01-07T09:46:18.698Z,100568.97
2023-01-07T09:49:29.837Z,100570.03
2023-01-07T09:52:37.424Z,100565.53
2023-01-07T09:56:10.003Z,100562.41
2023-01-07T09:59:04.520Z,100556.28
2023-01-07T10:02:15.084Z,100558.81
2023-01-07T10:05:43.446Z,100562.25
2023-01-07T10:09:04.155Z,100548.81
2023-01-07T10:12:33.624Z,100548.97
2023-01-07T10:15:59.899Z,100542.28
2023-01-07T10:19:23.729Z,100532.97
2023-01-07T10:22:40.050Z,100535.47
2023-01-07T10:25:48.134Z,100530.72
2023-01-07T10:28:57.691Z,100526.34
2023-01-07T10:32:08.095Z,100527.31
2023-01-07T10:35:14.746Z,100514.88
2023-01-07T10:38:19.835Z,100520.25
2023-01-07T10:41:41.927Z,100513.75
2023-01-07T10:44:52.421Z,100501.69
2023-01-07T10:47:56.884Z,100497.63
2023-01-07T10:51:24.366Z,100490.56
2023-01-07T10:54:48.728Z,100474.81
2023-01-07T10:57:50.160Z,100475.16
2023-01-07T11:00:51.842Z,100473.19
2023-01-07T11:03:55.952Z,100465.00
2023-01-07T11:07:06.735Z,100457.81
2023-01-07T11:10:14.998Z,100450.44
2023-01-07T11:13:21.123Z,100447.56
2023-01-07T11:16:29.243Z,100438.53
2023-01-07T11:19:45.739Z,100440.28
2023-01-07T11:22:47.248Z,100428.53
2023-01-07T11:25:49.205Z,100426.97
2023-01-07T11:28:53.667Z,100416.31
2023-01-07T11:31:57.184Z,100417.94
2023-01-07T11:35:22.588Z,100404.78
2023-01-07T11:38:29.381Z,100405.63
2023-01-07T11:41:30.902Z,100396.03
2023-01-07T11:44:32.466Z,100396.56
2023-01-07T11:47:34.227Z,100390.41
2023-01-07T11:50:38.684Z,100380.81
2023-01-07T11:53:51.094Z,100370.19
2023-01-07T11:56:55.153Z,100361.88
2023-01-07T12:00:17.209Z,100359.78
2023-01-07T12:03:18.965Z,100355.84
2023-01-07T12:06:33.995Z,100353.06
2023-01-07T12:09:38.676Z,100346.00
2023-01-07T12:12:43.870Z,100352.03
2023-01-07T12:16:01.899Z,100339.47
2023-01-07T12:19:53.112Z,100332.34
2023-01-07T12:23:23.394Z,100323.47
2023-01-07T12:26:32.337Z,100321.84
2023-01-07T12:29:57.646Z,100307.50
2023-01-07T12:33:28.897Z,100289.44
2023-01-07T12:36:40.110Z,100296.34
2023-01-07T12:39:45.347Z,100293.47
2023-01-07T12:42:59.275Z,100288.00
2023-01-07T12:46:04.281Z,100278.25
2023-01-07T12:49:13.535Z,100282.56
2023-01-07T12:52:21.247Z,100273.16
2023-01-07T12:55:28.378Z,100275.31
2023-01-07T12:58:38.154Z,100258.53
2023-01-07T13:01:51.002Z,100245.41
2023-01-07T13:05:19.988Z,100241.09
2023-01-07T13:08:43.577Z,100242.00
2023-01-07T13:12:41.899Z,100242.75
2023-01-07T13:15:44.477Z,100244.66
2023-01-07T13:18:45.873Z,100233.50
2023-01-07T13:21:49.296Z,100227.09
2023-01-07T13:25:12.184Z,100233.03
2023-01-07T13:28:38.981Z,100225.28
2023-01-07T13:32:01.946Z,100221.75
2023-01-07T13:35:25.462Z,100212.81
2023-01-07T13:38:55.236Z,100213.13
2023-01-07T13:42:19.747Z,100213.56
2023-01-07T13:45:32.370Z,100217.00
2023-01-07T13:48:34.712Z,100204.09
2023-01-07T13:51:38.369Z,100211.84
2023-01-07T13:54:48.574Z,100213.25
2023-01-07T13:57:50.868Z,100206.56
2023-01-07T14:01:12.212Z,100216.13
2023-01-07T14:04:22.772Z,100215.16
2023-01-07T14:07:24.352Z,100221.84
2023-01-07T14:10:31.415Z,100216.00
2023-01-07T14:13:42.367Z,100209.78
2023-01-07T14:17:02.889Z,100207.88
2023-01-07T14:20:38.571Z,100210.88
2023-01-07T14:23:55.747Z,100201.41
2023-01-07T14:27:18.436Z,100201.13
2023-01-07T14:30:23.458Z,100210.25
2023-01-07T14:33:27.118Z,100204.47
2023-01-07T14:37:09.756Z,100193.53
2023-01-07T14:40:26.489Z,100184.47
2023-01-07T14:43:46.093Z,100198.91
2023-01-07T14:46:48.920Z,100196.13
2023-01-07T14:50:05.585Z,100197.47
2023-01-07T14:53:29.124Z,100191.03
2023-01-07T14:56:39.321Z,100189.16
2023-01-07T15:00:02.728Z,100189.47
2023-01-07T15:03:22.970Z,100184.28
2023-01-07T15:06:33.957Z,100180.00
2023-01-07T15:10:09.790Z,100183.25
2023-01-07T15:13:39.996Z,100180.66
2023-01-07T15:16:43.499Z,100173.97
2023-01-07T15:19:45.380Z,100171.88
2023-01-07T15:23:34.408Z,100171.88
2023-01-07T15:27:07.251Z,100170.63
2023-01-07T15:30:20.377Z,100171.97
2023-01-07T15:33:50.676Z,100167.38
2023-01-07T15:36:52.517Z,100165.81
2023-01-07T15:39:57.779Z,100167.59
2023-01-07T15:42:59.425Z,100172.13
2023-01-07T15:46:04.637Z,100168.16
2023-01-07T15:49:09.032Z,100164.06
2023-01-07T15:52:27.529Z,100161.72
2023-01-07T15:55:50.090Z,100170.63
2023-01-07T15:58:51.825Z,100168.28
2023-01-07T16:01:59.989Z,100162.50
2023-01-07T16:05:04.963Z,100158.81
2023-01-07T16:08:14.863Z,100156.50
2023-01-07T16:11:25.813Z,100156.75
2023-01-07T16:14:28.072Z,100157.06
2023-01-07T16:17:29.605Z,100149.38
2023-01-07T16:20:36.015Z,100153.88
2023-01-07T16:23:39.318Z,100156.78
2023-01-07T16:26:49.282Z,100150.75
2023-01-07T16:29:54.679Z,100151.38
2023-01-07T16:32:56.716Z,100144.50
2023-01-07T16:36:01.850Z,100137.59
2023-01-07T16:39:12.188Z,100136.69
2023-01-07T16:42:20.060Z,100140.44
2023-01-07T16:45:25.141Z,100125.31
2023-01-07T16:48:26.647Z,100128.78
2023-01-07T16:51:37.212Z,100132.91
2023-01-07T16:54:41.208Z,100127.91
2023-01-07T16:57:44.956Z,100124.94
2023-01-07T17:00:51.953Z,100116.44
2023-01-07T17:03:58.219Z,100119.41
2023-01-07T17:07:01.328Z,100112.34
2023-01-07T17:10:03.107Z,100104.69
2023-01-07T17:13:36.244Z,100106.25
2023-01-07T17:16:38.505Z,100107.31
2023-01-07T17:19:41.860Z,100104.91
2023-01-07T17:22:43.540Z,100107.06
2023-01-07T17:25:45.144Z,100100.66
2023-01-07T17:28:50.436Z,100093.81
2023-01-07T17:31:51.968Z,100077.53
2023-01-07T17:34:53.502Z,100094.47
2023-01-07T17:37:56.606Z,100094.25
2023-01-07T17:40:58.067Z,100097.75
2023-01-07T17:43:59.491Z,100092.31
2023-01-07T17:47:00.939Z,100083.09
2023-01-07T17:50:02.376Z,100099.31
2023-01-07T17:53:04.663Z,100086.63
2023-01-07T17:56:06.388Z,100087.59
2023-01-07T17:59:14.795Z,100092.13
2023-01-07T18:02:23.188Z,100082.38
2023-01-07T18:05:26.239Z,100076.25
2023-01-07T18:08:27.831Z,100079.25
2023-01-07T18:11:48.204Z,100080.59
2023-01-07T18:14:49.650Z,100077.88
2023-01-07T18:17:51.807Z,100078.03
2023-01-07T18:20:54.094Z,100080.09
2023-01-07T18:23:55.536Z,100079.91
2023-01-07T18:26:56.934Z,100082.03
2023-01-07T18:29:58.362Z,100083.66
2023-01-07T18:32:59.750Z,100084.66
2023-01-07T18:36:01.535Z,100086.94
2023-01-07T18:39:04.080Z,100077.44
2023-01-07T18:42:05.768Z,100081.84
2023-01-07T18:45:07.721Z,100079.47
2023-01-07T18:48:10.316Z,100076.75
2023-01-07T18:51:12.027Z,100071.63
2023-01-07T18:54:14.231Z,100071.00
2023-01-07T18:57:15.791Z,100064.94
2023-01-07T19:00:17.428Z,100052.00
2023-01-07T19:03:18.883Z,100050.03
2023-01-07T19:06:20.259Z,100045.41
2023-01-07T19:09:22.992Z,100048.75
2023-01-07T19:12:24.396Z,100047.34
2023-01-07T19:15:25.802Z,100062.03
2023-01-07T19:18:28.131Z,100047.25
2023-01-07T19:21:29.915Z,100052.41
2023-01-07T19:24:31.403Z,100051.94
2023-01-07T19:27:32.903Z,100058.91
2023-01-07T19:30:34.377Z,100060.66
2023-01-07T19:33:36.557Z,100059.91
2023-01-07T19:36:38.196Z,100058.47
2023-01-07T19:39:40.468Z,100047.16
2023-01-07T19:42:41.906Z,100048.09
2023-01-07T19:45:52.873Z,100039.31
2023-01-07T19:48:54.298Z,100030.50
2023-01-07T19:51:56.045Z,100027.09
2023-01-07T19:54:57.636Z,100030.56
2023-01-07T19:57:59.063Z,100030.50
2023-01-07T20:01:04.377Z,100016.38
2023-01-07T20:04:07.917Z,100024.28
2023-01-07T20:07:09.344Z,100016.53
2023-01-07T20:10:11.641Z,100022.66
2023-01-07T20:13:13.032Z,100006.00
2023-01-07T20:16:21.785Z,100014.81
2023-01-07T20:19:23.366Z,100014.72
2023-01-07T20:22:24.769Z,100002.34
2023-01-07T20:25:26.238Z,100012.78
2023-01-07T20:28:28.947Z,100005.81
2023-01-07T20:31:31.213Z,100003.13
2023-01-07T20:34:32.790Z,100006.41
2023-01-07T20:37:34.570Z,100003.66
2023-01-07T20:40:39.928Z,100004.56
2023-01-07T20:43:41.511Z,100006.50
2023-01-07T20:46:42.929Z,100011.97
2023-01-07T20:49:44.863Z,100023.38
2023-01-07T20:52:46.240Z,100022.97
2023-01-07T20:55:51.363Z,100013.41
2023-01-07T20:58:52.819Z,100014.22
2023-01-07T21:01:54.357Z,100012.66
2023-01-07T21:04:56.093Z,100013.59
2023-01-07T21:07:59.150Z,99998.94
2023-01-07T21:11:00.681Z,100000.06
2023-01-07T21:14:02.112Z,100004.34
2023-01-07T21:17:03.620Z,99992.88
2023-01-07T21:20:06.259Z,99984.19
2023-01-07T21:23:07.842Z,99995.78
2023-01-07T21:26:10.102Z,99990.75
2023-01-07T21:29:11.533Z,99996.00
2023-01-07T21:32:13.962Z,100000.00
2023-01-07T21:35:15.479Z,100004.50
2023-01-07T21:38:16.857Z,99998.97
2023-01-07T21:41:18.423Z,99998.72
2023-01-07T21:44:19.801Z,99999.00
2023-01-07T21:47:21.211Z,100007.00
2023-01-07T21:50:22.606Z,100000.34
2023-01-07T21:53:23.990Z,99995.78
2023-01-07T21:56:32.505Z,99988.22
2023-01-07T21:59:33.924Z,99999.28
2023-01-07T22:02:35.309Z,100001.16
2023-01-07T22:05:36.868Z,99998.53
2023-01-07T22:08:38.235Z,99980.63
2023-01-07T22:11:41.389Z,99988.81
2023-01-07T22:14:42.772Z,99992.00
2023-01-07T22:17:44.140Z,99996.25
2023-01-07T22:20:52.466Z,100007.28
2023-01-07T22:23:53.875Z,100003.69
2023-01-07T22:26:55.435Z,100008.06
2023-01-07T22:29:57.592Z,100006.47
2023-01-07T22:32:59.011Z,100004.59
2023-01-07T22:36:00.468Z,100000.25
2023-01-07T22:39:04.595Z,100000.69
2023-01-07T22:42:13.849Z,99992.19
2023-01-07T22:45:21.079Z,100004.38
2023-01-07T22:48:27.099Z,99994.81
2023-01-07T22:51:36.917Z,100001.69
2023-01-07T22:54:39.834Z,99997.28
2023-01-07T22:57:41.879Z,99992.78
2023-01-07T23:00:46.197Z,100000.66
2023-01-07T23:03:47.867Z,99995.25
2023-01-07T23:06:49.416Z,99981.59
2023-01-07T23:09:51.721Z,99980.03
2023-01-07T23:12:53.218Z,99971.00
2023-01-07T23:15:54.769Z,99974.56
2023-01-07T23:18:56.171Z,99968.66
2023-01-07T23:21:57.601Z,99965.78
2023-01-07T23:24:59.004Z,99969.28
2023-01-07T23:28:00.404Z,99964.75
2023-01-07T23:31:02.008Z,99959.63
2023-01-07T23:34:04.319Z,99960.53
2023-01-07T23:37:05.801Z,99968.66
2023-01-07T23:40:08.773Z,99959.66
2023-01-07T23:43:10.354Z,99962.34
2023-01-07T23:46:11.877Z,99955.38
2023-01-07T23:49:13.307Z,99950.13
2023-01-07T23:52:15.005Z,99950.97
2023-01-07T23:55:16.437Z,99937.25
2023-01-07T23:58:18.112Z,99923.81
